Αρχική σελίδα
METAR-TAF:

METAR-TAF

Αεροδρόμια :

Pointe-Noire, Κονγκό

γεωγραφικό πλάτος: 04-49S, γεωγραφικό μήκος: 011-54E, υψόμετρο: 17 μ

Παρών καιρός

Η αναφορά έγινε 1 ώρα και 17 λεπτά πριν, στις 17:00 UTC
Άνεμος 5 kt από ΝΔ
Θερμοκρασία 27°C
Υγρασία 89%
Πίεση 1009 hPa
Ορατότητα: 8000 μ
Λίγα νέφη σε ύψος 1300 πόδια

METAR: FCPP 251700Z 22005KT 8000 FEW013 27/25 Q1009 NOSIG

Χρόνος: 19:17 (18:17 UTC)

Πρόγνωση Καιρού

Η αναφορά έγινε 1 ώρα και 17 λεπτά πριν, στις 17:00 UTC
Η πρόγνωση ισχύει από τις 25 στις 18 UTC έως τις 26 στις 18 UTC
Άνεμος 5 kt από ΝΔ
Ορατότητα: 8000 μ
Λίγα νέφη σε ύψος 1300 πόδια
Πιθανότητα 30%
από 26 στις 03 UTC έως τις 26 στις 06 UTC
Ορατότητα: 4000 μ
Αχλής

TAF: FCPP 251700Z 2518/2618 22005KT 8000 FEW013 PROB30 2603/2606 4000 BR

Μετεωρολογικές αναφορές και προγνώσεις για περισσότερα από 4000 αεροδρόμια (δελτία METAR και TAF).

Οι διαθέσιμοι σταθμοί απεικονίζονται στο χάρτη με κίτρινες και κόκκινες κουκκίδες.

Μετακινήστε το ποντίκι πάνω από τις κουκκίδες για να δείτε το όνομα του σταθμού.

Στη συνέχεια, κάντε κλικ για να δείτε τις μετεωρολογικές αναφορές και τις προγνώσεις καιρού.

Για να αλλάξετε το χάρτη: κάντε κλικ στα πράσινα κουμπιά με τον μαύρο σταυρό για να ζουμάρετε, στο πράσινο κουμπί με την παύλα για να αφαιρέσετε το ζουμ ή στα πράσινα βέλη για να αντιπαραβάλλετε χάρτες.


METAR-TAF: